This is the latest recevied weather packets stored in our database for station/object OE6JUE. If no packets are shown the sender has not sent any weather packets the latest 10 day(s).
| Time | Temp. | Humidity | Pressure | Rain* | Wind** | Luminosity | Snow |
|---|---|---|---|---|---|---|---|
| 1787990315 | 23.89° C | 41% | 1018.8 hPa | 0 mm | - | - | - |
| 1787990014 | 24.44° C | 41% | 1018.6 hPa | 0 mm | - | - | - |
| 1787989714 | 24.44° C | 39% | 1018.6 hPa | 0 mm | - | - | - |
| 1787989414 | 24.44° C | 40% | 1018.5 hPa | 0 mm | - | - | - |
| 1787989115 | 24.44° C | 40% | 1018.5 hPa | 0 mm | - | - | - |
| 1787988814 | 25° C | 37% | 1018.3 hPa | 0 mm | - | - | - |
| 1787988514 | 25° C | 40% | 1018.4 hPa | 0 mm | - | - | - |
| 1787988214 | 24.44° C | 43% | 1018.3 hPa | 0 mm | - | - | - |
| 1787987914 | 22.78° C | 50% | 1018.3 hPa | 0 mm | - | - | - |
| 1787987614 | 22.22° C | 51% | 1018.4 hPa | 0 mm | - | - | - |
| 1787987314 | 21.67° C | 51% | 1018.3 hPa | 0 mm | - | - | - |
| 1787987014 | 21.67° C | 51% | 1018.2 hPa | 0 mm | - | - | - |
| 1787986714 | 21.67° C | 51% | 1018.2 hPa | 0 mm | - | - | - |
| 1787986414 | 21.11° C | 51% | 1017.9 hPa | 0 mm | - | - | - |
| 1787986114 | 21.67° C | 51% | 1018 hPa | 0 mm | - | - | - |
| 1787985814 | 21.11° C | 52% | 1018 hPa | 0 mm | - | - | - |
| 1787985515 | 21.11° C | 53% | 1017.8 hPa | 0 mm | - | - | - |
| 1787985214 | 20.56° C | 58% | 1017.9 hPa | 0 mm | - | - | - |
| 1787984914 | 20° C | 61% | 1017.8 hPa | 0 mm | - | - | - |
| 1787984614 | 20° C | 62% | 1017.7 hPa | 0 mm | - | - | - |
| 1787984314 | 20° C | 63% | 1017.8 hPa | 0 mm | - | - | - |
| 1787984013 | 19.44° C | 67% | 1017.9 hPa | 0 mm | - | - | - |
| 1787983714 | 19.44° C | 67% | 1017.9 hPa | 0 mm | - | - | - |
| 1787983414 | 19.44° C | 70% | 1017.7 hPa | 0 mm | - | - | - |
| 1787983114 | 18.89° C | 70% | 1017.7 hPa | 0 mm | - | - | - |
* Rain latest hour (hover to see other rain measurements)
** Current wind speed in m/s (hover to see current wind gust speed)